createdAt,value
2023-05-01T00:00:24.573Z,0
2023-05-01T00:01:25.833Z,0
2023-05-01T00:03:23.548Z,0
2023-05-01T00:04:23.809Z,0
2023-05-01T00:05:23.622Z,0
2023-05-01T00:06:23.260Z,0
2023-05-01T00:07:23.235Z,0
2023-05-01T00:08:23.624Z,0
2023-05-01T00:09:23.449Z,0
2023-05-01T00:10:23.505Z,0
2023-05-01T00:11:23.178Z,0
2023-05-01T00:12:23.456Z,0
2023-05-01T00:13:23.087Z,0
2023-05-01T00:14:23.744Z,0.109
2023-05-01T00:15:23.760Z,0
2023-05-01T00:16:23.520Z,0
2023-05-01T00:17:23.297Z,0
2023-05-01T00:18:23.243Z,0
2023-05-01T00:19:23.802Z,0
2023-05-01T00:20:23.710Z,0
2023-05-01T00:21:23.337Z,0
2023-05-01T00:22:23.240Z,0.109
2023-05-01T00:23:24.086Z,0
2023-05-01T00:24:23.966Z,0
2023-05-01T00:25:23.888Z,0
2023-05-01T00:26:23.655Z,0
2023-05-01T00:27:23.456Z,0
2023-05-01T00:28:23.499Z,0.109
2023-05-01T00:29:23.693Z,0
2023-05-01T00:30:23.989Z,0
2023-05-01T00:31:23.772Z,0
2023-05-01T00:32:23.853Z,0
2023-05-01T00:33:23.692Z,0
2023-05-01T00:34:23.509Z,0
2023-05-01T00:35:23.397Z,0.109
2023-05-01T00:36:23.224Z,0
2023-05-01T00:37:23.688Z,0
2023-05-01T00:38:23.539Z,0.109
2023-05-01T00:39:23.496Z,0
2023-05-01T00:40:23.261Z,0
2023-05-01T00:41:23.869Z,0
2023-05-01T00:42:23.484Z,0
2023-05-01T00:43:23.176Z,0
2023-05-01T00:44:23.621Z,0
2023-05-01T00:45:23.696Z,0
2023-05-01T00:46:23.446Z,0.109
2023-05-01T00:47:23.295Z,0
2023-05-01T00:48:23.365Z,0
2023-05-01T00:49:23.363Z,0.109
2023-05-01T00:50:23.694Z,0
2023-05-01T00:51:23.356Z,0
2023-05-01T00:52:23.290Z,0
2023-05-01T00:53:23.970Z,0.490
2023-05-01T00:54:28.456Z,0.109
2023-05-01T00:55:23.333Z,0.219
2023-05-01T00:56:30.978Z,0.109
2023-05-01T00:57:23.988Z,0
2023-05-01T00:58:23.757Z,0
2023-05-01T00:59:23.282Z,0
2023-05-01T01:00:24.887Z,0.109
2023-05-01T01:01:23.663Z,0.109
2023-05-01T01:02:23.681Z,0
2023-05-01T01:03:23.692Z,0
2023-05-01T01:04:23.578Z,0.109
2023-05-01T01:05:23.644Z,0.109
2023-05-01T01:06:23.630Z,0.109
2023-05-01T01:07:23.434Z,0
2023-05-01T01:08:37.387Z,0.109
2023-05-01T01:09:23.455Z,0.109
2023-05-01T01:10:37.937Z,0.109
2023-05-01T01:11:23.655Z,0.340
2023-05-01T01:12:23.314Z,0
2023-05-01T01:13:23.871Z,0.109
2023-05-01T01:14:23.493Z,0.109
2023-05-01T01:15:23.090Z,0.219
2023-05-01T01:16:23.706Z,0.109
2023-05-01T01:17:23.574Z,0.109
2023-05-01T01:18:23.726Z,0
2023-05-01T01:19:23.694Z,0
2023-05-01T01:20:24.113Z,0
2023-05-01T01:21:23.699Z,0
2023-05-01T01:22:23.323Z,0
2023-05-01T01:23:23.534Z,0.109
2023-05-01T01:24:23.356Z,0.109
2023-05-01T01:25:24.009Z,0
2023-05-01T01:26:23.454Z,0.109
2023-05-01T01:27:23.138Z,0
2023-05-01T01:28:23.754Z,0
2023-05-01T01:29:23.445Z,0.219
2023-05-01T01:30:23.830Z,0
2023-05-01T01:31:23.649Z,0
2023-05-01T01:32:23.651Z,0.109
2023-05-01T01:33:23.278Z,0
2023-05-01T01:34:23.737Z,0.109
2023-05-01T01:35:23.857Z,0
2023-05-01T01:36:23.414Z,0
2023-05-01T01:37:23.178Z,0
2023-05-01T01:38:23.526Z,0
2023-05-01T01:39:23.289Z,0
2023-05-01T01:40:23.136Z,0
2023-05-01T01:41:23.549Z,0.109
2023-05-01T01:42:23.348Z,0
2023-05-01T01:43:23.487Z,0
2023-05-01T01:45:27.990Z,0
2023-05-01T01:47:28.060Z,0
2023-05-01T01:48:23.139Z,0
2023-05-01T01:49:23.639Z,0
2023-05-01T01:50:23.623Z,0
2023-05-01T01:51:23.450Z,0.219
2023-05-01T01:52:23.369Z,0
2023-05-01T01:53:23.262Z,0
2023-05-01T01:54:23.345Z,0
2023-05-01T01:55:23.523Z,0
2023-05-01T01:56:23.305Z,0
2023-05-01T01:57:23.337Z,0
2023-05-01T01:58:23.388Z,0
2023-05-01T01:59:23.505Z,0
2023-05-01T02:00:24.671Z,0
2023-05-01T02:01:23.396Z,0
2023-05-01T02:02:23.441Z,0
2023-05-01T02:03:23.612Z,0.109
2023-05-01T02:04:23.581Z,0
2023-05-01T02:05:23.533Z,0
2023-05-01T02:06:23.387Z,0
2023-05-01T02:07:23.449Z,0
2023-05-01T02:08:23.364Z,0.219
2023-05-01T02:09:23.379Z,0
2023-05-01T02:10:23.519Z,0
2023-05-01T02:11:23.289Z,0
2023-05-01T02:12:23.929Z,0.109
2023-05-01T02:13:23.465Z,0
2023-05-01T02:14:23.920Z,0
2023-05-01T02:15:23.702Z,0
2023-05-01T02:16:23.543Z,0
2023-05-01T02:17:23.579Z,0.109
2023-05-01T02:18:23.657Z,0
2023-05-01T02:19:23.507Z,0.109
2023-05-01T02:20:23.629Z,0
2023-05-01T02:21:23.514Z,0
2023-05-01T02:22:23.503Z,0
2023-05-01T02:23:23.546Z,0
2023-05-01T02:24:23.907Z,0
2023-05-01T02:25:24.442Z,0
2023-05-01T02:26:23.204Z,0
2023-05-01T02:27:23.407Z,0
2023-05-01T02:28:23.902Z,0.109
2023-05-01T02:29:24.353Z,0
2023-05-01T02:30:23.884Z,0
2023-05-01T02:31:23.760Z,0
2023-05-01T02:32:23.723Z,0
2023-05-01T02:33:23.144Z,0
2023-05-01T02:34:24.039Z,0
2023-05-01T02:35:23.637Z,0
2023-05-01T02:36:23.519Z,0
2023-05-01T02:37:23.388Z,0
2023-05-01T02:38:23.141Z,0
2023-05-01T02:39:23.927Z,0.109
2023-05-01T02:40:23.885Z,0
2023-05-01T02:41:23.803Z,0
2023-05-01T02:42:23.603Z,0
2023-05-01T02:43:23.375Z,0
2023-05-01T02:44:24.067Z,0
2023-05-01T02:45:24.011Z,0
2023-05-01T02:46:23.921Z,0
2023-05-01T02:47:24.154Z,0
2023-05-01T02:48:23.561Z,0.109
2023-05-01T02:49:23.566Z,0
2023-05-01T02:50:24.025Z,0.109
2023-05-01T02:51:23.989Z,0
2023-05-01T02:52:23.905Z,0
2023-05-01T02:53:23.903Z,0
2023-05-01T02:54:23.868Z,0.109
2023-05-01T02:55:24.036Z,0
2023-05-01T02:56:23.456Z,0
2023-05-01T02:57:23.713Z,0
2023-05-01T02:58:23.989Z,0.219
2023-05-01T02:59:23.850Z,0.109
2023-05-01T03:00:25.169Z,0.109
2023-05-01T03:01:23.382Z,0
2023-05-01T03:02:23.707Z,0
2023-05-01T03:03:24.276Z,0
2023-05-01T03:04:23.678Z,0
2023-05-01T03:05:24.091Z,0
2023-05-01T03:06:23.629Z,0
2023-05-01T03:07:23.684Z,0
2023-05-01T03:08:23.757Z,0.109
2023-05-01T03:09:23.912Z,0
2023-05-01T03:10:24.008Z,0.340
2023-05-01T03:11:24.248Z,0.109
2023-05-01T03:12:23.269Z,0
2023-05-01T03:13:23.699Z,0.340
2023-05-01T03:14:23.572Z,0.109
2023-05-01T03:15:23.752Z,0
2023-05-01T03:16:23.586Z,0.340
2023-05-01T03:17:23.742Z,0.219
2023-05-01T03:18:23.744Z,0
2023-05-01T03:19:23.673Z,0
2023-05-01T03:20:24.889Z,0
2023-05-01T03:21:23.740Z,0
2023-05-01T03:22:24.115Z,0
2023-05-01T03:23:23.682Z,0
2023-05-01T03:24:24.072Z,13600
2023-05-01T03:25:24.058Z,0
2023-05-01T03:26:24.079Z,13600
2023-05-01T03:27:24.012Z,0
2023-05-01T03:28:23.455Z,0
2023-05-01T03:29:23.484Z,0
2023-05-01T03:30:24.165Z,0
2023-05-01T03:31:23.401Z,0
2023-05-01T03:32:23.745Z,0
2023-05-01T03:33:24.061Z,0
2023-05-01T03:34:24.108Z,0
2023-05-01T03:35:23.688Z,0
2023-05-01T03:36:23.771Z,0
2023-05-01T03:37:23.877Z,0
2023-05-01T03:38:23.773Z,0
2023-05-01T03:39:23.606Z,0
2023-05-01T03:40:24.006Z,0
2023-05-01T03:41:23.914Z,0
2023-05-01T03:42:24.148Z,0
2023-05-01T03:43:23.578Z,0.280
2023-05-01T03:44:23.730Z,0.680
2023-05-01T03:45:24.292Z,0.430
2023-05-01T03:46:24.063Z,0.409
2023-05-01T03:47:23.634Z,0.75
2023-05-01T03:48:23.958Z,1.450
2023-05-01T03:49:23.624Z,1.730
2023-05-01T03:50:23.778Z,2.130
2023-05-01T03:51:23.972Z,2.940
2023-05-01T03:52:23.998Z,3.700
2023-05-01T03:53:24.062Z,4.349
2023-05-01T03:54:24.220Z,5.360
2023-05-01T03:55:24.092Z,6.389
2023-05-01T03:56:24.102Z,7.690
2023-05-01T03:57:23.933Z,9.090
2023-05-01T03:58:23.979Z,10.72
2023-05-01T03:59:23.312Z,12.43
2023-05-01T04:00:24.472Z,14.13
2023-05-01T04:01:45.892Z,16.20
2023-05-01T04:02:23.743Z,18.5
2023-05-01T04:03:24.127Z,20.70
2023-05-01T04:04:23.866Z,22.79
2023-05-01T04:05:24.365Z,25.57
2023-05-01T04:06:23.676Z,28.45
2023-05-01T04:07:23.897Z,31.30
2023-05-01T04:08:24.211Z,34.29
2023-05-01T04:09:24.011Z,37.40
2023-05-01T04:10:24.258Z,40.84
2023-05-01T04:11:23.423Z,44.20
2023-05-01T04:12:23.560Z,48.20
2023-05-01T04:13:23.684Z,52.70
2023-05-01T04:14:23.759Z,57.70
2023-05-01T04:15:23.983Z,63.20
2023-05-01T04:16:24.127Z,69.09
2023-05-01T04:17:24.005Z,74.5
2023-05-01T04:18:23.943Z,80.19
2023-05-01T04:19:23.984Z,85.69
2023-05-01T04:20:24.420Z,91.80
2023-05-01T04:21:23.768Z,97.19
2023-05-01T04:22:23.961Z,102.1
2023-05-01T04:23:24.837Z,107.8
2023-05-01T04:24:23.399Z,113.4
2023-05-01T04:25:24.152Z,119.1
2023-05-01T04:26:23.466Z,126.3
2023-05-01T04:27:23.605Z,133.1
2023-05-01T04:28:23.756Z,139.1
2023-05-01T04:29:24.042Z,144.6
2023-05-01T04:30:24.235Z,150.6
2023-05-01T04:31:23.818Z,156.3
2023-05-01T04:32:24.312Z,162.6
2023-05-01T04:33:23.781Z,169.1
2023-05-01T04:34:23.830Z,176.1
2023-05-01T04:35:23.587Z,183.5
2023-05-01T04:36:23.773Z,191.1
2023-05-01T04:37:24.109Z,199.1
2023-05-01T04:38:24.111Z,206.8
2023-05-01T04:39:23.549Z,214.5
2023-05-01T04:40:23.793Z,223.1
2023-05-01T04:41:24.291Z,231.5
2023-05-01T04:42:23.807Z,239.3
2023-05-01T04:43:24.042Z,247.3
2023-05-01T04:44:23.938Z,256.1
2023-05-01T04:45:24.446Z,265
2023-05-01T04:46:24.170Z,273.7
2023-05-01T04:47:23.710Z,281.8
2023-05-01T04:48:23.618Z,290.5
2023-05-01T04:49:23.772Z,299.3
2023-05-01T04:50:23.958Z,309
2023-05-01T04:51:23.484Z,319
2023-05-01T04:52:23.990Z,330
2023-05-01T04:53:23.561Z,341
2023-05-01T04:54:24.068Z,353
2023-05-01T04:55:23.627Z,364
2023-05-01T04:56:24.084Z,375
2023-05-01T04:57:23.862Z,385
2023-05-01T04:58:24.110Z,394.7
2023-05-01T04:59:23.499Z,403.1
2023-05-01T05:00:24.795Z,410.5
2023-05-01T05:01:24.498Z,417.6
2023-05-01T05:02:24.239Z,425
2023-05-01T05:03:23.910Z,432.2
2023-05-01T05:04:23.854Z,440.2
2023-05-01T05:05:24.112Z,447.8
2023-05-01T05:06:23.632Z,454.2
2023-05-01T05:07:24.425Z,459.1
2023-05-01T05:08:23.811Z,462.2
2023-05-01T05:09:24.067Z,465.8
2023-05-01T05:10:24.130Z,470.8
2023-05-01T05:11:23.789Z,476.5
2023-05-01T05:12:24.026Z,482.7
2023-05-01T05:13:24.159Z,487.7
2023-05-01T05:14:23.521Z,492.5
2023-05-01T05:15:23.775Z,498.2
2023-05-01T05:16:24.116Z,505.7
2023-05-01T05:17:23.871Z,514
2023-05-01T05:18:23.511Z,525
2023-05-01T05:19:23.968Z,536
2023-05-01T05:20:23.721Z,546.5
2023-05-01T05:21:24.114Z,555.2
2023-05-01T05:22:24.000Z,563.2
2023-05-01T05:23:24.166Z,569.2
2023-05-01T05:24:23.945Z,573.4
2023-05-01T05:25:24.118Z,577.4
2023-05-01T05:26:23.652Z,581.2
2023-05-01T05:27:23.888Z,585.5
2023-05-01T05:28:23.943Z,589.2
2023-05-01T05:29:24.067Z,591.2
2023-05-01T05:30:23.971Z,592.4
2023-05-01T05:31:24.129Z,593.7
2023-05-01T05:32:23.979Z,596.2
2023-05-01T05:33:23.883Z,602.7
2023-05-01T05:34:23.772Z,612
2023-05-01T05:35:24.614Z,624
2023-05-01T05:36:24.346Z,639
2023-05-01T05:37:24.169Z,656
2023-05-01T05:38:23.796Z,674
2023-05-01T05:39:24.208Z,692
2023-05-01T05:40:23.526Z,710
2023-05-01T05:41:23.780Z,724
2023-05-01T05:42:24.167Z,736
2023-05-01T05:43:24.970Z,748
2023-05-01T05:44:28.840Z,759
2023-05-01T05:45:24.312Z,769.5
2023-05-01T05:46:23.977Z,776.0
2023-05-01T05:47:23.746Z,780.1
2023-05-01T05:48:23.837Z,779.7
2023-05-01T05:49:24.488Z,775.2
2023-05-01T05:50:24.360Z,768
2023-05-01T05:51:24.036Z,761.0
2023-05-01T05:52:23.550Z,756.8
2023-05-01T05:53:25.756Z,755.5
2023-05-01T05:54:23.929Z,755.8
2023-05-01T05:55:23.820Z,755.4
2023-05-01T05:56:23.753Z,755.8
2023-05-01T05:57:24.710Z,755.7
2023-05-01T05:58:24.323Z,757.4
2023-05-01T05:59:23.683Z,760.2
2023-05-01T06:00:39.187Z,763.9
2023-05-01T06:01:24.414Z,766.2
2023-05-01T06:02:23.952Z,767.0
2023-05-01T06:03:24.657Z,769.0
2023-05-01T06:04:23.805Z,771.4
2023-05-01T06:05:24.473Z,773.2
2023-05-01T06:06:38.320Z,778.7
2023-05-01T06:07:23.626Z,789
2023-05-01T06:08:38.349Z,806
2023-05-01T06:09:24.084Z,827
2023-05-01T06:10:24.062Z,850
2023-05-01T06:11:23.622Z,872
2023-05-01T06:12:23.974Z,894
2023-05-01T06:13:23.868Z,917
2023-05-01T06:14:24.425Z,939
2023-05-01T06:15:24.207Z,960
2023-05-01T06:16:23.985Z,978
2023-05-01T06:17:23.855Z,997
2023-05-01T06:18:23.834Z,1012
2023-05-01T06:19:24.027Z,1024.
2023-05-01T06:20:24.469Z,1032.
2023-05-01T06:21:24.332Z,1035.
2023-05-01T06:22:23.952Z,1032.
2023-05-01T06:23:23.711Z,1024
2023-05-01T06:24:23.922Z,1019.
2023-05-01T06:25:24.578Z,1020.
2023-05-01T06:26:24.446Z,1022.
2023-05-01T06:27:23.771Z,1021.
2023-05-01T06:28:24.396Z,1012.
2023-05-01T06:29:23.693Z,1006.
2023-05-01T06:30:23.639Z,1006.
2023-05-01T06:31:24.272Z,1016
2023-05-01T06:32:24.241Z,1037
2023-05-01T06:33:23.891Z,1060
2023-05-01T06:34:23.628Z,1100
2023-05-01T06:35:24.150Z,1150
2023-05-01T06:36:23.712Z,1190
2023-05-01T06:37:23.954Z,1230
2023-05-01T06:38:26.298Z,1265
2023-05-01T06:39:23.821Z,1289
2023-05-01T06:40:24.460Z,1308
2023-05-01T06:41:23.816Z,1330
2023-05-01T06:42:24.205Z,1356
2023-05-01T06:43:23.803Z,1380
2023-05-01T06:44:23.814Z,1420
2023-05-01T06:45:23.851Z,1470
2023-05-01T06:46:24.505Z,1510
2023-05-01T06:47:24.344Z,1570
2023-05-01T06:48:23.798Z,1620
2023-05-01T06:49:24.494Z,1660
2023-05-01T06:50:24.220Z,1700
2023-05-01T06:51:23.741Z,1731
2023-05-01T06:52:24.183Z,1760
2023-05-01T06:53:23.875Z,1791
2023-05-01T06:54:24.427Z,1821
2023-05-01T06:55:24.307Z,1850
2023-05-01T06:56:23.819Z,1890
2023-05-01T06:57:23.699Z,1922
2023-05-01T06:58:24.597Z,1944
2023-05-01T06:59:24.404Z,1955.
2023-05-01T07:00:24.802Z,1952
2023-05-01T07:01:23.734Z,1931
2023-05-01T07:02:24.123Z,1902
2023-05-01T07:03:24.063Z,1874
2023-05-01T07:04:24.499Z,1856.
2023-05-01T07:05:24.220Z,1855
2023-05-01T07:06:24.014Z,1861.
2023-05-01T07:07:23.573Z,1865.
2023-05-01T07:08:24.100Z,1867.
2023-05-01T07:09:23.724Z,1866.
2023-05-01T07:10:23.921Z,1865.
2023-05-01T07:11:23.727Z,1875
2023-05-01T07:12:24.236Z,1895
2023-05-01T07:13:24.100Z,1920
2023-05-01T07:14:23.894Z,1960
2023-05-01T07:15:24.700Z,2000
2023-05-01T07:16:24.282Z,2029
2023-05-01T07:17:24.477Z,2037.
2023-05-01T07:18:24.164Z,2030
2023-05-01T07:19:24.402Z,2021
2023-05-01T07:20:24.470Z,2012
2023-05-01T07:21:24.307Z,2005
2023-05-01T07:22:23.922Z,2003.
2023-05-01T07:23:23.922Z,2016
2023-05-01T07:24:23.785Z,2034
2023-05-01T07:25:23.777Z,2043.
2023-05-01T07:26:24.171Z,2042
2023-05-01T07:27:24.150Z,2027
2023-05-01T07:28:23.922Z,2011
2023-05-01T07:29:23.574Z,2005.
2023-05-01T07:30:24.474Z,2010
2023-05-01T07:31:24.044Z,2024
2023-05-01T07:32:23.712Z,2047
2023-05-01T07:33:23.662Z,2080
2023-05-01T07:34:24.228Z,2112
2023-05-01T07:35:23.867Z,2135
2023-05-01T07:36:23.986Z,2160
2023-05-01T07:37:23.713Z,2160
2023-05-01T07:38:24.452Z,2166
2023-05-01T07:39:24.170Z,2182
2023-05-01T07:40:24.206Z,2210
2023-05-01T07:41:23.932Z,2250
2023-05-01T07:42:24.041Z,2310
2023-05-01T07:43:23.656Z,2380
2023-05-01T07:44:24.090Z,2430
2023-05-01T07:45:24.532Z,2460
2023-05-01T07:46:23.789Z,2464.
2023-05-01T07:47:23.722Z,2463.
2023-05-01T07:48:24.244Z,2464.
2023-05-01T07:49:23.726Z,2460.
2023-05-01T07:50:24.422Z,2453.
2023-05-01T07:51:24.271Z,2445
2023-05-01T07:52:23.844Z,2436.
2023-05-01T07:53:23.753Z,2447
2023-05-01T07:54:23.756Z,2472
2023-05-01T07:55:24.407Z,2500
2023-05-01T07:56:24.074Z,2550
2023-05-01T07:57:24.156Z,2620
2023-05-01T07:58:23.741Z,2700
2023-05-01T07:59:23.728Z,2789
2023-05-01T08:00:25.233Z,2786
2023-05-01T08:01:24.308Z,2800
2023-05-01T08:02:24.194Z,2840
2023-05-01T08:03:24.443Z,2800
2023-05-01T08:04:24.164Z,2910
2023-05-01T08:05:24.181Z,3000
2023-05-01T08:06:23.871Z,3000
2023-05-01T08:07:23.609Z,3000
2023-05-01T08:08:24.045Z,3130
2023-05-01T08:09:23.739Z,3122
2023-05-01T08:10:23.863Z,3160
2023-05-01T08:11:24.203Z,3220
2023-05-01T08:12:23.701Z,3280
2023-05-01T08:13:24.048Z,3307.
2023-05-01T08:14:23.963Z,3302
2023-05-01T08:15:31.862Z,3291
2023-05-01T08:16:24.088Z,3283.
2023-05-01T08:17:23.667Z,3283
2023-05-01T08:18:24.415Z,3305
2023-05-01T08:19:24.114Z,3334
2023-05-01T08:20:24.081Z,3354
2023-05-01T08:21:23.492Z,3352
2023-05-01T08:22:24.084Z,3329
2023-05-01T08:23:23.769Z,3300
2023-05-01T08:24:24.547Z,3270
2023-05-01T08:25:24.363Z,3251
2023-05-01T08:26:23.914Z,3239
2023-05-01T08:27:24.183Z,3231
2023-05-01T08:28:23.781Z,3207
2023-05-01T08:29:24.388Z,3184
2023-05-01T08:30:24.068Z,3150
2023-05-01T08:31:24.027Z,3110
2023-05-01T08:32:23.816Z,3060
2023-05-01T08:33:23.765Z,2990
2023-05-01T08:34:24.169Z,2920
2023-05-01T08:35:23.491Z,2908
2023-05-01T08:36:23.884Z,2960
2023-05-01T08:37:23.600Z,3060
2023-05-01T08:38:24.132Z,3140
2023-05-01T08:39:23.785Z,3210
2023-05-01T08:40:24.259Z,3300
2023-05-01T08:41:24.066Z,3390
2023-05-01T08:42:23.914Z,3442
2023-05-01T08:43:24.036Z,3449
2023-05-01T08:44:23.909Z,3420
2023-05-01T08:45:24.439Z,3370
2023-05-01T08:46:24.005Z,3300
2023-05-01T08:47:23.981Z,3230
2023-05-01T08:48:24.166Z,3192
2023-05-01T08:49:23.791Z,3190
2023-05-01T08:50:24.620Z,3240
2023-05-01T08:51:24.349Z,3330
2023-05-01T08:52:24.135Z,3400
2023-05-01T08:53:23.888Z,3530
2023-05-01T08:54:23.907Z,3600
2023-05-01T08:55:24.324Z,0
2023-05-01T08:56:24.100Z,5000
2023-05-01T08:58:27.902Z,3900
2023-05-01T08:59:24.276Z,3900
2023-05-01T09:00:24.899Z,3900
2023-05-01T09:02:27.793Z,3740
2023-05-01T09:03:23.920Z,3790
2023-05-01T09:04:24.148Z,3870
2023-05-01T09:05:24.277Z,3930
2023-05-01T09:06:24.274Z,3970
2023-05-01T09:07:24.124Z,4020
2023-05-01T09:08:24.148Z,4054
2023-05-01T09:09:24.007Z,4080
2023-05-01T09:10:24.476Z,4090
2023-05-01T09:11:24.358Z,4097
2023-05-01T09:12:24.575Z,4116
2023-05-01T09:13:24.360Z,4133
2023-05-01T09:14:23.951Z,4138.
2023-05-01T09:15:24.207Z,4135
2023-05-01T09:16:24.184Z,4110
2023-05-01T09:17:23.937Z,4050
2023-05-01T09:18:24.138Z,3900
2023-05-01T09:19:24.063Z,3880
2023-05-01T09:20:24.534Z,3830
2023-05-01T09:21:24.274Z,3792
2023-05-01T09:22:24.250Z,3798
2023-05-01T09:23:24.001Z,3830
2023-05-01T09:24:24.132Z,3880
2023-05-01T09:25:24.347Z,3950
2023-05-01T09:26:24.381Z,4020
2023-05-01T09:27:24.195Z,4059
2023-05-01T09:28:24.233Z,4059
2023-05-01T09:29:24.208Z,4030
2023-05-01T09:30:24.510Z,3990
2023-05-01T09:31:24.431Z,3956
2023-05-01T09:32:24.951Z,3951
2023-05-01T09:33:24.568Z,3970
2023-05-01T09:34:24.124Z,3988.
2023-05-01T09:35:24.288Z,3982
2023-05-01T09:36:23.864Z,3959
2023-05-01T09:37:24.133Z,3920
2023-05-01T09:38:23.836Z,3870
2023-05-01T09:39:23.581Z,3820
2023-05-01T09:40:24.441Z,3770
2023-05-01T09:41:24.036Z,3710
2023-05-01T09:42:23.867Z,3660
2023-05-01T09:43:23.643Z,3600
2023-05-01T09:44:24.319Z,3400
2023-05-01T09:45:24.247Z,3390
2023-05-01T09:46:24.069Z,3290
2023-05-01T09:47:24.690Z,3210
2023-05-01T09:48:23.855Z,3130
2023-05-01T09:49:23.821Z,3030
2023-05-01T09:50:23.980Z,2940
2023-05-01T09:51:24.096Z,2880
2023-05-01T09:52:24.102Z,2853
2023-05-01T09:53:24.232Z,2824
2023-05-01T09:54:24.277Z,2790
2023-05-01T09:55:25.419Z,2740
2023-05-01T09:56:23.780Z,2690
2023-05-01T09:57:24.547Z,2665
2023-05-01T09:58:24.452Z,2647
2023-05-01T09:59:24.341Z,2638.
2023-05-01T10:00:24.853Z,2630
2023-05-01T10:01:23.711Z,2619.
2023-05-01T10:02:24.296Z,2636
2023-05-01T10:03:24.374Z,2666
2023-05-01T10:04:23.983Z,2680.
2023-05-01T10:05:24.020Z,2687
2023-05-01T10:06:24.168Z,2704
2023-05-01T10:07:24.301Z,2722
2023-05-01T10:08:23.990Z,2740
2023-05-01T10:09:23.872Z,2750
2023-05-01T10:10:28.834Z,2749
2023-05-01T10:11:23.789Z,2768
2023-05-01T10:12:23.963Z,2785
2023-05-01T10:13:24.485Z,2791.
2023-05-01T10:14:24.628Z,2773
2023-05-01T10:15:26.778Z,2730
2023-05-01T10:16:24.022Z,2660
2023-05-01T10:17:23.843Z,2500
2023-05-01T10:18:23.563Z,2400
2023-05-01T10:19:24.296Z,2300
2023-05-01T10:20:24.462Z,2210
2023-05-01T10:21:24.470Z,2187
2023-05-01T10:22:24.039Z,2230
2023-05-01T10:23:24.033Z,2300
2023-05-01T10:24:24.263Z,2400
2023-05-01T10:25:24.336Z,2500
2023-05-01T10:26:24.108Z,2700
2023-05-01T10:27:23.966Z,2900
2023-05-01T10:28:23.948Z,3100
2023-05-01T10:29:23.790Z,3200
2023-05-01T10:30:30.034Z,3400
2023-05-01T10:31:24.141Z,3600
2023-05-01T10:32:29.028Z,3800
2023-05-01T10:34:28.561Z,4000
2023-05-01T10:35:24.375Z,4200
2023-05-01T10:36:24.199Z,4300
2023-05-01T10:37:24.124Z,4380
2023-05-01T10:38:24.212Z,4470
2023-05-01T10:39:24.138Z,4500
2023-05-01T10:40:24.107Z,4700
2023-05-01T10:41:24.025Z,4800
2023-05-01T10:42:23.930Z,5000
2023-05-01T10:43:23.717Z,5100
2023-05-01T10:44:24.427Z,5220
2023-05-01T10:45:24.238Z,5310
2023-05-01T10:46:24.101Z,5400
2023-05-01T10:47:24.019Z,5510
2023-05-01T10:48:24.258Z,5590
2023-05-01T10:49:24.288Z,5660
2023-05-01T10:50:24.508Z,5720
2023-05-01T10:51:27.495Z,5800
2023-05-01T10:52:23.953Z,0
2023-05-01T10:53:23.630Z,0
2023-05-01T10:54:24.591Z,0
2023-05-01T10:55:24.462Z,0
2023-05-01T10:56:24.430Z,0
2023-05-01T10:57:24.568Z,5000
2023-05-01T10:58:24.276Z,5200
2023-05-01T10:59:24.056Z,4900
2023-05-01T11:00:25.040Z,4700
2023-05-01T11:01:24.403Z,4500
2023-05-01T11:02:24.019Z,4300
2023-05-01T11:03:24.530Z,4100
2023-05-01T11:04:24.850Z,3800
2023-05-01T11:05:38.021Z,3600
2023-05-01T11:06:24.813Z,3400
2023-05-01T11:07:24.040Z,3200
2023-05-01T11:08:24.089Z,3100
2023-05-01T11:09:24.011Z,3030
2023-05-01T11:10:24.183Z,2950
2023-05-01T11:11:24.084Z,2890
2023-05-01T11:12:24.005Z,2820
2023-05-01T11:13:24.059Z,2760
2023-05-01T11:14:24.018Z,2690
2023-05-01T11:15:24.265Z,2640
2023-05-01T11:16:24.521Z,2590
2023-05-01T11:17:24.000Z,2550
2023-05-01T11:18:24.213Z,2510
2023-05-01T11:19:24.862Z,2470
2023-05-01T11:21:28.325Z,2410
2023-05-01T11:22:24.158Z,2380
2023-05-01T11:23:23.986Z,2330
2023-05-01T11:24:23.908Z,2280
2023-05-01T11:25:24.099Z,2240
2023-05-01T11:27:27.316Z,2186
2023-05-01T11:28:24.534Z,2179.
2023-05-01T11:29:24.057Z,2187
2023-05-01T11:30:24.361Z,2211
2023-05-01T11:31:24.300Z,2240
2023-05-01T11:32:24.590Z,2290
2023-05-01T11:33:24.070Z,2350
2023-05-01T11:35:27.537Z,2460
2023-05-01T11:36:24.338Z,2540
2023-05-01T11:37:24.084Z,2610
2023-05-01T11:38:23.850Z,2690
2023-05-01T11:39:23.841Z,2700
2023-05-01T11:40:23.912Z,2800
2023-05-01T11:41:24.099Z,3000
2023-05-01T11:42:24.493Z,3100
2023-05-01T11:43:24.087Z,3200
2023-05-01T11:44:24.555Z,3370
2023-05-01T11:45:24.838Z,3440
2023-05-01T11:46:24.656Z,3480
2023-05-01T11:47:24.359Z,3515
2023-05-01T11:48:24.503Z,3529
2023-05-01T11:49:24.118Z,3545
2023-05-01T11:50:24.088Z,3572
2023-05-01T11:51:24.173Z,3600
2023-05-01T11:52:24.572Z,3640
2023-05-01T11:53:24.595Z,3700
2023-05-01T11:54:24.967Z,3800
2023-05-01T11:55:24.351Z,4000
2023-05-01T11:56:27.235Z,4000
2023-05-01T11:57:23.962Z,4000
2023-05-01T11:58:24.069Z,4400
2023-05-01T11:59:24.009Z,4600
2023-05-01T12:01:29.241Z,4900
2023-05-01T12:02:25.084Z,5100
2023-05-01T12:03:24.520Z,5000
2023-05-01T12:04:24.391Z,5920
2023-05-01T12:05:24.392Z,6000
2023-05-01T12:06:24.515Z,6000
2023-05-01T12:07:24.566Z,7000
2023-05-01T12:08:24.930Z,7000
2023-05-01T12:09:24.041Z,8000
2023-05-01T12:10:24.210Z,8000
2023-05-01T12:11:23.907Z,0
2023-05-01T12:12:24.017Z,0
2023-05-01T12:13:24.111Z,10000
2023-05-01T12:14:23.890Z,0
2023-05-01T12:15:24.312Z,0
2023-05-01T12:16:24.143Z,0
2023-05-01T12:17:24.689Z,0
2023-05-01T12:18:24.272Z,0
2023-05-01T12:19:24.372Z,0
2023-05-01T12:20:24.760Z,0
2023-05-01T12:21:24.033Z,0
2023-05-01T12:22:24.167Z,6000
2023-05-01T12:23:23.903Z,5000
2023-05-01T12:24:23.808Z,4000
2023-05-01T12:25:24.079Z,4400
2023-05-01T12:26:24.231Z,4200
2023-05-01T12:27:24.224Z,4000
2023-05-01T12:28:24.012Z,3800
2023-05-01T12:29:23.900Z,3700
2023-05-01T12:30:24.496Z,3500
2023-05-01T12:31:24.093Z,3400
2023-05-01T12:32:24.473Z,3300
2023-05-01T12:33:24.451Z,3240
2023-05-01T12:34:24.589Z,3150
2023-05-01T12:35:24.164Z,3000
2023-05-01T12:36:24.450Z,2900
2023-05-01T12:37:24.317Z,2850
2023-05-01T12:38:24.544Z,2750
2023-05-01T12:39:24.381Z,2680
2023-05-01T12:40:24.594Z,2620
2023-05-01T12:41:24.273Z,2587
2023-05-01T12:42:24.417Z,2575.
2023-05-01T12:43:23.982Z,2592
2023-05-01T12:44:23.990Z,2630
2023-05-01T12:45:24.198Z,2690
2023-05-01T12:46:24.391Z,2760
2023-05-01T12:47:23.950Z,2810
2023-05-01T12:48:24.234Z,2835.
2023-05-01T12:49:24.351Z,2820
2023-05-01T12:50:24.434Z,2780
2023-05-01T12:51:23.876Z,2740
2023-05-01T12:52:24.025Z,2718
2023-05-01T12:53:24.172Z,2697
2023-05-01T12:54:24.178Z,2686.
2023-05-01T12:55:24.709Z,2694
2023-05-01T12:56:24.054Z,2720
2023-05-01T12:57:29.145Z,2770
2023-05-01T12:58:24.268Z,2840
2023-05-01T12:59:29.812Z,2920
2023-05-01T13:00:24.733Z,3000
2023-05-01T13:01:24.206Z,3050
2023-05-01T13:02:24.813Z,3096
2023-05-01T13:03:24.124Z,3120
2023-05-01T13:04:24.421Z,3139
2023-05-01T13:05:24.702Z,3153
2023-05-01T13:06:23.922Z,3162.
2023-05-01T13:07:24.180Z,3168.
2023-05-01T13:08:24.238Z,3183
2023-05-01T13:09:24.269Z,3200
2023-05-01T13:10:24.344Z,3250
2023-05-01T13:11:24.199Z,3300
2023-05-01T13:12:24.122Z,3360
2023-05-01T13:13:23.996Z,3420
2023-05-01T13:14:23.986Z,3480
2023-05-01T13:15:38.045Z,3480
2023-05-01T13:16:24.119Z,3300
2023-05-01T13:17:24.148Z,3200
2023-05-01T13:18:24.115Z,3000
2023-05-01T13:19:24.352Z,2800
2023-05-01T13:20:24.583Z,2600
2023-05-01T13:21:23.933Z,2500
2023-05-01T13:22:23.872Z,2300
2023-05-01T13:23:23.925Z,2200
2023-05-01T13:24:23.940Z,2120
2023-05-01T13:25:24.001Z,2084
2023-05-01T13:26:24.002Z,2075.
2023-05-01T13:27:24.014Z,2085
2023-05-01T13:28:24.014Z,2110
2023-05-01T13:29:23.780Z,2170
2023-05-01T13:30:24.995Z,2240
2023-05-01T13:31:42.991Z,2310
2023-05-01T13:32:23.990Z,2357
2023-05-01T13:33:23.834Z,2364.
2023-05-01T13:34:24.155Z,2357.
2023-05-01T13:35:24.549Z,2362
2023-05-01T13:36:26.413Z,2390
2023-05-01T13:37:24.050Z,2420
2023-05-01T13:38:23.988Z,2460
2023-05-01T13:39:24.049Z,2520
2023-05-01T13:40:24.267Z,2600